Time;durP1;ratioP1;P1;durP2;ratioP2;P2;SDS_P1;SDS_P2;PMS_P1;PMS_P2;Temp;Humidity;BMP_temperature;BMP_pressure;BME280_temperature;BME280_humidity;BME280_pressure;Samples;Min_cycle;Max_cycle;Signal;HPM_P1;HPM_P2
2021/03/29 00:01:21;;;;;;;12.98;5.57;;;;;;;;;;4994172;28;20050;-61
2021/03/29 00:03:47;;;;;;;8.27;4.25;;;;;;;;;;4994903;28;20029;-62
2021/03/29 00:06:13;;;;;;;7.45;3.97;;;;;;;;;;4996023;28;20030;-62
2021/03/29 00:08:40;;;;;;;9.30;4.85;;;;;;;;;;4996533;28;20025;-63
2021/03/29 00:11:07;;;;;;;8.75;4.68;;;;;;;;;;4996026;28;20109;-62
2021/03/29 00:13:33;;;;;;;10.80;4.93;;;;;;;;;;4980354;28;20408;-62
2021/03/29 00:16:01;;;;;;;9.20;4.28;;;;;;;;;;4989195;28;20022;-64
2021/03/29 00:18:27;;;;;;;10.35;4.75;;;;;;;;;;4993882;28;20080;-57
2021/03/29 00:20:55;;;;;;;10.80;5.72;;;;;;;;;;4994873;28;20053;-58
2021/03/29 00:23:21;;;;;;;9.63;4.50;;;;;;;;;;4995727;28;20026;-57
2021/03/29 00:25:47;;;;;;;8.80;4.80;;;;;;;;;;4993897;28;20034;-59
2021/03/29 00:28:14;;;;;;;9.50;4.50;;;;;;;;;;4993443;28;20030;-58
2021/03/29 00:30:43;;;;;;;9.93;4.30;;;;;;;;;;4993681;28;20034;-58
2021/03/29 00:33:09;;;;;;;8.23;5.60;;;;;;;;;;4993341;28;20376;-59
2021/03/29 00:35:36;;;;;;;8.93;4.90;;;;;;;;;;4993882;28;20031;-58
2021/03/29 00:38:03;;;;;;;8.02;4.63;;;;;;;;;;4995049;28;20030;-58
2021/03/29 00:40:30;;;;;;;11.77;4.88;;;;;;;;;;4993041;28;20030;-58
2021/03/29 00:43:00;;;;;;;9.40;5.13;;;;;;;;;;4993837;28;20428;-71
2021/03/29 00:45:26;;;;;;;9.95;5.18;;;;;;;;;;4995752;28;20113;-58
2021/03/29 00:47:54;;;;;;;11.60;6.03;;;;;;;;;;4995175;28;20137;-58
2021/03/29 00:50:33;;;;;;;11.68;8.07;;;;;;;;;;4995123;28;20038;-57
2021/03/29 00:52:59;;;;;;;17.00;7.72;;;;;;;;;;4994505;28;20049;-58
2021/03/29 00:55:26;;;;;;;21.85;13.68;;;;;;;;;;4994795;28;20034;-59
2021/03/29 00:57:52;;;;;;;26.30;15.50;;;;;;;;;;4994922;28;20019;-58
2021/03/29 01:00:21;;;;;;;24.20;14.38;;;;;;;;;;4995245;28;20113;-58
2021/03/29 01:02:47;;;;;;;30.48;17.27;;;;;;;;;;4994601;28;20026;-61
2021/03/29 01:05:21;;;;;;;31.90;15.15;;;;;;;;;;4993895;28;20046;-58
2021/03/29 01:07:48;;;;;;;33.33;16.83;;;;;;;;;;4992878;28;20026;-58
2021/03/29 01:10:14;;;;;;;28.58;16.25;;;;;;;;;;4992321;28;20046;-58
2021/03/29 01:12:41;;;;;;;30.20;17.10;;;;;;;;;;4993096;28;20073;-58
2021/03/29 01:15:09;;;;;;;29.50;16.23;;;;;;;;;;4993165;28;20023;-58
2021/03/29 01:17:35;;;;;;;35.22;17.42;;;;;;;;;;4992824;28;20068;-58
2021/03/29 01:20:01;;;;;;;24.83;16.20;;;;;;;;;;4992812;28;20053;-57
2021/03/29 01:22:44;;;;;;;31.42;17.00;;;;;;;;;;4993071;28;20495;-58
2021/03/29 01:25:10;;;;;;;26.80;15.05;;;;;;;;;;4992608;28;20424;-57
2021/03/29 01:27:45;;;;;;;25.98;15.13;;;;;;;;;;4992904;28;20030;-58
2021/03/29 01:30:12;;;;;;;29.92;15.55;;;;;;;;;;4992863;28;20040;-57
2021/03/29 01:32:40;;;;;;;25.90;14.90;;;;;;;;;;4992368;28;20061;-58
2021/03/29 01:35:10;;;;;;;25.83;15.15;;;;;;;;;;4992140;28;20484;-57
2021/03/29 01:37:38;;;;;;;31.33;16.13;;;;;;;;;;4992663;28;20034;-58
2021/03/29 01:40:04;;;;;;;23.13;14.95;;;;;;;;;;4992629;28;20365;-57
2021/03/29 01:42:30;;;;;;;28.05;15.18;;;;;;;;;;4992759;28;20076;-57
2021/03/29 01:44:56;;;;;;;23.38;13.43;;;;;;;;;;4992325;28;20539;-58
2021/03/29 01:47:22;;;;;;;21.17;9.85;;;;;;;;;;4992736;28;20049;-58
2021/03/29 01:49:49;;;;;;;18.55;10.23;;;;;;;;;;4992227;28;20025;-58
2021/03/29 01:52:15;;;;;;;23.17;12.00;;;;;;;;;;4992754;28;20109;-57
2021/03/29 01:54:42;;;;;;;16.27;10.35;;;;;;;;;;4992330;28;20555;-57
2021/03/29 01:57:09;;;;;;;17.92;9.70;;;;;;;;;;4992568;28;20030;-57
2021/03/29 01:59:36;;;;;;;18.80;9.75;;;;;;;;;;4992205;28;20029;-58
2021/03/29 02:02:03;;;;;;;17.83;9.45;;;;;;;;;;4992432;28;20037;-58
2021/03/29 02:04:29;;;;;;;15.98;9.25;;;;;;;;;;4992253;28;20500;-57
2021/03/29 02:06:56;;;;;;;18.05;10.02;;;;;;;;;;4992338;28;20030;-57
2021/03/29 02:09:23;;;;;;;17.50;10.27;;;;;;;;;;4992052;28;20073;-58
2021/03/29 02:11:49;;;;;;;19.98;10.63;;;;;;;;;;4990865;28;20646;-57
2021/03/29 02:14:16;;;;;;;18.27;10.02;;;;;;;;;;4992412;28;20030;-58
2021/03/29 02:16:42;;;;;;;18.20;10.75;;;;;;;;;;4992238;28;20031;-57
2021/03/29 02:19:09;;;;;;;19.38;9.32;;;;;;;;;;4992128;28;20058;-59
2021/03/29 02:21:40;;;;;;;18.00;10.32;;;;;;;;;;4992431;28;20437;-62
2021/03/29 02:24:07;;;;;;;20.02;9.93;;;;;;;;;;4992242;28;20026;-58
2021/03/29 02:26:36;;;;;;;17.25;9.27;;;;;;;;;;4992229;28;20022;-58
2021/03/29 02:29:02;;;;;;;19.83;9.85;;;;;;;;;;4992053;28;20030;-57
2021/03/29 02:31:29;;;;;;;16.88;10.13;;;;;;;;;;4992095;28;20520;-57
2021/03/29 02:33:57;;;;;;;15.98;9.07;;;;;;;;;;4992092;28;20113;-58
2021/03/29 02:36:23;;;;;;;12.70;8.65;;;;;;;;;;4992254;28;20034;-57
2021/03/29 02:38:50;;;;;;;18.88;10.20;;;;;;;;;;4991978;28;20029;-58
2021/03/29 02:41:17;;;;;;;16.10;9.10;;;;;;;;;;4991771;28;20046;-58
2021/03/29 02:43:46;;;;;;;16.95;10.00;;;;;;;;;;4991598;28;20069;-58
2021/03/29 02:46:12;;;;;;;12.90;8.90;;;;;;;;;;4992530;28;20031;-58
2021/03/29 02:48:45;;;;;;;15.23;9.00;;;;;;;;;;4994617;28;20026;-58
2021/03/29 02:51:13;;;;;;;16.38;9.77;;;;;;;;;;4994424;28;20044;-58
2021/03/29 02:53:40;;;;;;;17.77;10.18;;;;;;;;;;4995122;28;20107;-57
2021/03/29 02:56:07;;;;;;;18.25;9.52;;;;;;;;;;4993816;28;20034;-58
2021/03/29 02:58:35;;;;;;;16.42;9.95;;;;;;;;;;4995127;28;20077;-58
2021/03/29 03:01:01;;;;;;;19.23;10.13;;;;;;;;;;4994702;28;20037;-58
2021/03/29 03:03:27;;;;;;;11.88;7.55;;;;;;;;;;4995068;28;20025;-59
2021/03/29 03:05:54;;;;;;;16.45;8.02;;;;;;;;;;4994932;28;20116;-58
2021/03/29 03:08:20;;;;;;;16.75;9.15;;;;;;;;;;4994698;28;20022;-58
2021/03/29 03:10:47;;;;;;;14.88;8.85;;;;;;;;;;4994505;28;20057;-58
2021/03/29 03:13:13;;;;;;;14.25;8.27;;;;;;;;;;4995030;28;20034;-58
2021/03/29 03:15:39;;;;;;;14.85;7.57;;;;;;;;;;4994581;28;20023;-58
2021/03/29 03:18:07;;;;;;;14.50;8.48;;;;;;;;;;4995058;28;20030;-57
2021/03/29 03:20:34;;;;;;;13.30;7.50;;;;;;;;;;4994829;28;20022;-58
2021/03/29 03:23:01;;;;;;;12.18;7.53;;;;;;;;;;4993553;28;20042;-58
2021/03/29 03:25:29;;;;;;;12.95;8.25;;;;;;;;;;4995250;28;20023;-58
2021/03/29 03:27:56;;;;;;;14.93;8.05;;;;;;;;;;4994976;28;20065;-58
2021/03/29 03:30:24;;;;;;;15.05;8.10;;;;;;;;;;4994602;28;20109;-58
2021/03/29 03:32:51;;;;;;;13.55;7.82;;;;;;;;;;4995120;28;20057;-71
2021/03/29 03:35:18;;;;;;;13.52;7.95;;;;;;;;;;5016623;28;20029;-59
2021/03/29 03:37:47;;;;;;;16.85;8.30;;;;;;;;;;5016201;28;20022;-58
2021/03/29 03:40:13;;;;;;;14.00;7.80;;;;;;;;;;5008291;28;20042;-58
2021/03/29 03:42:40;;;;;;;13.63;8.15;;;;;;;;;;5008955;28;20065;-58
2021/03/29 03:45:09;;;;;;;12.15;7.68;;;;;;;;;;5003367;28;20098;-58
2021/03/29 03:47:36;;;;;;;14.80;8.60;;;;;;;;;;5000327;28;20046;-58
2021/03/29 03:50:03;;;;;;;12.25;8.07;;;;;;;;;;5000346;28;20030;-63
2021/03/29 03:52:29;;;;;;;16.30;8.45;;;;;;;;;;5012929;28;20031;-59
2021/03/29 03:54:56;;;;;;;23.80;10.70;;;;;;;;;;4999721;28;20026;-58
2021/03/29 03:57:22;;;;;;;19.70;9.82;;;;;;;;;;4996165;28;20150;-58
2021/03/29 03:59:48;;;;;;;21.50;10.02;;;;;;;;;;4995982;28;20101;-58
2021/03/29 04:02:14;;;;;;;20.20;9.55;;;;;;;;;;4997802;28;20033;-58
2021/03/29 04:04:41;;;;;;;18.38;10.07;;;;;;;;;;5012138;28;20022;-58
2021/03/29 04:07:07;;;;;;;17.63;9.48;;;;;;;;;;5011150;28;20026;-58
2021/03/29 04:09:41;;;;;;;20.83;9.85;;;;;;;;;;5007166;28;20042;-58
2021/03/29 04:12:11;;;;;;;17.05;9.23;;;;;;;;;;4999149;28;20073;-57
2021/03/29 04:14:37;;;;;;;16.95;8.95;;;;;;;;;;5001426;28;20496;-58
2021/03/29 04:17:03;;;;;;;16.65;9.55;;;;;;;;;;4993988;28;20050;-58
2021/03/29 04:19:30;;;;;;;22.90;12.05;;;;;;;;;;4993658;28;20113;-58
2021/03/29 04:21:56;;;;;;;28.02;12.38;;;;;;;;;;5008265;28;20444;-58
2021/03/29 04:24:22;;;;;;;34.22;18.85;;;;;;;;;;4993591;28;20428;-57
2021/03/29 04:26:48;;;;;;;36.05;20.52;;;;;;;;;;4993696;28;20018;-58
2021/03/29 04:29:14;;;;;;;33.35;19.20;;;;;;;;;;4993391;28;20030;-58
2021/03/29 04:31:40;;;;;;;35.53;19.42;;;;;;;;;;4993544;28;20085;-58
2021/03/29 04:34:06;;;;;;;34.42;19.58;;;;;;;;;;4993161;28;20025;-57
2021/03/29 04:36:33;;;;;;;35.10;19.60;;;;;;;;;;4993626;28;20027;-58
2021/03/29 04:38:59;;;;;;;33.28;19.63;;;;;;;;;;5006917;28;20022;-58
2021/03/29 04:41:25;;;;;;;34.30;19.05;;;;;;;;;;4992157;28;20040;-58
2021/03/29 04:43:51;;;;;;;39.80;20.33;;;;;;;;;;4993228;28;20039;-58
2021/03/29 04:46:17;;;;;;;34.53;18.98;;;;;;;;;;4992131;28;20570;-57
2021/03/29 04:48:43;;;;;;;37.47;19.27;;;;;;;;;;4993953;28;20373;-59
2021/03/29 04:51:09;;;;;;;37.72;19.88;;;;;;;;;;5012145;28;20030;-58
2021/03/29 04:53:35;;;;;;;31.48;18.58;;;;;;;;;;5015031;28;20030;-58
2021/03/29 04:56:01;;;;;;;39.63;18.40;;;;;;;;;;5012766;28;20416;-61
2021/03/29 04:58:30;;;;;;;33.42;19.25;;;;;;;;;;5003577;28;20100;-58
2021/03/29 05:00:56;;;;;;;39.72;20.13;;;;;;;;;;5003804;28;20034;-61
2021/03/29 05:03:22;;;;;;;38.55;19.10;;;;;;;;;;4999239;28;20030;-62
2021/03/29 05:05:49;;;;;;;31.05;17.55;;;;;;;;;;5000743;28;20033;-61
2021/03/29 05:08:15;;;;;;;32.10;17.88;;;;;;;;;;4989806;28;20088;-62
2021/03/29 05:10:42;;;;;;;32.55;18.85;;;;;;;;;;5010263;28;20076;-62
2021/03/29 05:13:08;;;;;;;34.88;19.88;;;;;;;;;;5009489;28;20053;-61
2021/03/29 05:15:34;;;;;;;33.40;18.33;;;;;;;;;;5008297;28;20038;-62
2021/03/29 05:18:00;;;;;;;39.70;19.90;;;;;;;;;;5009372;28;20109;-62
2021/03/29 05:20:26;;;;;;;36.20;18.83;;;;;;;;;;5009916;28;20053;-62
2021/03/29 05:22:53;;;;;;;26.35;18.83;;;;;;;;;;5007520;28;20113;-62
2021/03/29 05:25:19;;;;;;;35.70;19.63;;;;;;;;;;4999530;28;20022;-62
2021/03/29 05:27:45;;;;;;;38.95;19.48;;;;;;;;;;5011199;28;20121;-61
2021/03/29 05:30:11;;;;;;;36.15;19.30;;;;;;;;;;5011967;28;20026;-65
2021/03/29 05:32:37;;;;;;;29.85;17.83;;;;;;;;;;5012728;28;20411;-62
2021/03/29 05:35:04;;;;;;;32.33;18.38;;;;;;;;;;5009761;28;20034;-62
2021/03/29 05:37:30;;;;;;;30.33;18.95;;;;;;;;;;4987921;28;20491;-64
2021/03/29 05:39:57;;;;;;;31.00;17.95;;;;;;;;;;4993577;28;20037;-63
2021/03/29 05:42:24;;;;;;;34.90;18.70;;;;;;;;;;5003999;28;20527;-63
2021/03/29 05:44:54;;;;;;;31.02;17.75;;;;;;;;;;4998615;28;20031;-62
2021/03/29 05:47:20;;;;;;;26.60;18.27;;;;;;;;;;4994937;28;20048;-64
2021/03/29 05:49:46;;;;;;;29.20;18.70;;;;;;;;;;5000366;28;20023;-64
2021/03/29 05:52:12;;;;;;;27.50;17.23;;;;;;;;;;4992056;28;20065;-63
2021/03/29 05:54:39;;;;;;;32.67;17.25;;;;;;;;;;4992727;28;20026;-64
2021/03/29 05:57:06;;;;;;;29.20;17.90;;;;;;;;;;4992483;28;20172;-64
2021/03/29 05:59:41;;;;;;;30.10;17.17;;;;;;;;;;4992195;28;20014;-63
2021/03/29 06:02:25;;;;;;;32.67;18.20;;;;;;;;;;5002999;28;20487;-64
2021/03/29 06:04:51;;;;;;;29.10;17.88;;;;;;;;;;5006002;28;20022;-65
2021/03/29 06:07:19;;;;;;;35.88;18.50;;;;;;;;;;4995130;28;20030;-65
2021/03/29 06:09:49;;;;;;;32.95;18.13;;;;;;;;;;4991525;28;20038;-65
2021/03/29 06:12:15;;;;;;;33.60;17.25;;;;;;;;;;4995155;28;20046;-65
2021/03/29 06:14:44;;;;;;;28.58;17.08;;;;;;;;;;4992369;28;20112;-64
2021/03/29 06:17:10;;;;;;;34.90;18.70;;;;;;;;;;5004989;28;20040;-65
2021/03/29 06:19:44;;;;;;;28.88;17.48;;;;;;;;;;5011793;28;20022;-64
2021/03/29 06:22:10;;;;;;;29.23;16.95;;;;;;;;;;5015782;28;20021;-65
2021/03/29 06:24:56;;;;;;;32.83;17.05;;;;;;;;;;5015356;28;20112;-64
2021/03/29 06:27:24;;;;;;;29.58;16.52;;;;;;;;;;5015504;28;20140;-64
2021/03/29 06:29:51;;;;;;;34.15;17.85;;;;;;;;;;5015622;28;20025;-64
2021/03/29 06:32:18;;;;;;;32.03;18.65;;;;;;;;;;5015660;28;20038;-65
2021/03/29 06:34:44;;;;;;;30.15;16.95;;;;;;;;;;5015485;28;20029;-65
2021/03/29 06:37:11;;;;;;;28.83;17.13;;;;;;;;;;5009095;28;20029;-64
2021/03/29 06:39:40;;;;;;;30.23;20.00;;;;;;;;;;5004991;28;20022;-64
2021/03/29 06:42:07;;;;;;;34.67;18.20;;;;;;;;;;5005962;28;20402;-64
2021/03/29 06:44:34;;;;;;;32.33;17.23;;;;;;;;;;5016317;28;20022;-65
2021/03/29 06:47:09;;;;;;;34.10;18.33;;;;;;;;;;5016774;28;20084;-64
2021/03/29 06:49:39;;;;;;;31.88;18.80;;;;;;;;;;5016523;28;20564;-65
2021/03/29 06:52:27;;;;;;;30.33;18.13;;;;;;;;;;5010214;28;20488;-64
2021/03/29 06:54:54;;;;;;;30.90;17.13;;;;;;;;;;4995890;28;20133;-67
2021/03/29 06:57:31;;;;;;;29.33;15.80;;;;;;;;;;4994990;28;20023;-65
2021/03/29 06:59:57;;;;;;;29.48;18.38;;;;;;;;;;4999073;28;20080;-65
2021/03/29 07:02:36;;;;;;;31.63;17.73;;;;;;;;;;5015402;28;20061;-66
2021/03/29 07:05:02;;;;;;;31.10;18.23;;;;;;;;;;5012483;28;20049;-65
2021/03/29 07:07:29;;;;;;;38.53;18.65;;;;;;;;;;5006120;28;20021;-65
2021/03/29 07:09:57;;;;;;;36.35;18.95;;;;;;;;;;5007081;28;20049;-65
2021/03/29 07:12:24;;;;;;;32.55;18.67;;;;;;;;;;5005760;28;20117;-66
2021/03/29 07:14:51;;;;;;;38.92;19.25;;;;;;;;;;5011203;28;20030;-65
2021/03/29 07:17:19;;;;;;;35.42;18.52;;;;;;;;;;4993558;28;20054;-65
2021/03/29 07:19:46;;;;;;;33.45;19.70;;;;;;;;;;4995417;28;20030;-64
2021/03/29 07:22:14;;;;;;;37.72;19.55;;;;;;;;;;4994913;28;20020;-65
2021/03/29 07:24:40;;;;;;;31.33;18.05;;;;;;;;;;4995436;28;20037;-64
2021/03/29 07:27:07;;;;;;;36.55;19.92;;;;;;;;;;5002263;28;20031;-63
2021/03/29 07:29:37;;;;;;;36.60;16.52;;;;;;;;;;5014244;28;20026;-64
2021/03/29 07:32:04;;;;;;;34.30;17.15;;;;;;;;;;5013369;28;20034;-64
2021/03/29 07:34:50;;;;;;;30.35;18.08;;;;;;;;;;5004581;28;20019;-63
2021/03/29 07:37:25;;;;;;;23.80;15.05;;;;;;;;;;5002773;28;20440;-66
2021/03/29 07:39:51;;;;;;;21.95;15.50;;;;;;;;;;5002349;28;20038;-65
2021/03/29 07:42:23;;;;;;;26.77;15.00;;;;;;;;;;4994661;28;20510;-66
2021/03/29 07:44:52;;;;;;;30.40;17.33;;;;;;;;;;4993527;28;20376;-64
2021/03/29 07:47:37;;;;;;;24.98;15.30;;;;;;;;;;4991897;28;20022;-65
2021/03/29 07:50:04;;;;;;;27.02;17.10;;;;;;;;;;4994486;28;20034;-63
2021/03/29 07:52:30;;;;;;;26.40;14.40;;;;;;;;;;4994232;28;20491;-64
2021/03/29 07:54:57;;;;;;;23.67;14.57;;;;;;;;;;4995861;28;20105;-64
2021/03/29 07:57:59;;;;;;;23.70;13.73;;;;;;;;;;4993092;28;20034;-67
2021/03/29 08:00:25;;;;;;;26.30;14.25;;;;;;;;;;5003205;28;20022;-63
2021/03/29 08:02:56;;;;;;;20.88;13.18;;;;;;;;;;4993505;28;20472;-63
2021/03/29 08:05:41;;;;;;;28.38;15.18;;;;;;;;;;4993978;28;20461;-64
2021/03/29 08:08:26;;;;;;;25.67;13.57;;;;;;;;;;4996525;28;20026;-65
2021/03/29 08:11:18;;;;;;;23.92;13.25;;;;;;;;;;4991515;28;20058;-66
2021/03/29 08:13:53;;;;;;;22.83;12.70;;;;;;;;;;4994319;28;20041;-68
2021/03/29 08:16:22;;;;;;;22.20;12.40;;;;;;;;;;5004991;28;20057;-66
2021/03/29 08:19:07;;;;;;;24.60;12.77;;;;;;;;;;4999510;28;20026;-66
2021/03/29 08:21:48;;;;;;;20.23;12.48;;;;;;;;;;4999506;28;20072;-65
2021/03/29 08:24:21;;;;;;;22.83;11.35;;;;;;;;;;4993618;28;20061;-67
2021/03/29 08:26:48;;;;;;;21.85;9.65;;;;;;;;;;4993703;28;20148;-59
2021/03/29 08:29:16;;;;;;;19.60;9.85;;;;;;;;;;4993340;28;20034;-59
2021/03/29 08:32:00;;;;;;;18.45;10.20;;;;;;;;;;4993814;28;20038;-61
2021/03/29 08:34:27;;;;;;;17.08;9.93;;;;;;;;;;4984282;28;20018;-60
2021/03/29 08:36:54;;;;;;;18.75;10.20;;;;;;;;;;4993488;28;20488;-61
2021/03/29 08:39:21;;;;;;;16.13;10.43;;;;;;;;;;5002061;28;20056;-61
2021/03/29 08:41:50;;;;;;;16.38;8.98;;;;;;;;;;4993973;28;20038;-61
2021/03/29 08:44:16;;;;;;;13.68;6.95;;;;;;;;;;4993395;28;20023;-61
2021/03/29 08:46:44;;;;;;;11.25;7.30;;;;;;;;;;4993710;28;20027;-61
2021/03/29 08:49:10;;;;;;;13.30;7.90;;;;;;;;;;4993393;28;20018;-60
2021/03/29 08:51:36;;;;;;;10.13;6.25;;;;;;;;;;4991832;28;20045;-61
2021/03/29 08:54:06;;;;;;;15.20;8.57;;;;;;;;;;4992607;28;20022;-60
2021/03/29 08:56:42;;;;;;;14.77;9.00;;;;;;;;;;4992835;28;20026;-60
2021/03/29 08:59:09;;;;;;;19.90;9.50;;;;;;;;;;4987766;28;20364;-60
2021/03/29 09:01:35;;;;;;;16.88;7.97;;;;;;;;;;4992980;28;20030;-60
2021/03/29 09:04:02;;;;;;;17.58;9.10;;;;;;;;;;4992827;28;20037;-59
2021/03/29 09:06:29;;;;;;;16.40;9.48;;;;;;;;;;4991492;28;20422;-59
2021/03/29 09:08:56;;;;;;;15.57;9.40;;;;;;;;;;4993467;28;20023;-61
2021/03/29 09:11:22;;;;;;;16.08;8.82;;;;;;;;;;4992291;28;20080;-60
2021/03/29 09:13:53;;;;;;;21.80;9.90;;;;;;;;;;4992610;28;20054;-59
2021/03/29 09:16:23;;;;;;;17.50;9.65;;;;;;;;;;4991529;28;20034;-60
2021/03/29 09:18:49;;;;;;;18.30;11.32;;;;;;;;;;4992938;28;20145;-59
2021/03/29 09:21:23;;;;;;;19.17;10.60;;;;;;;;;;4992925;28;20488;-59
2021/03/29 09:23:49;;;;;;;18.20;10.00;;;;;;;;;;4981185;28;20499;-60
2021/03/29 09:26:23;;;;;;;16.83;10.13;;;;;;;;;;4993107;28;20034;-60
2021/03/29 09:28:52;;;;;;;16.42;9.90;;;;;;;;;;4991809;28;20034;-60
2021/03/29 09:31:21;;;;;;;16.65;10.02;;;;;;;;;;4992792;28;20041;-61
2021/03/29 09:33:48;;;;;;;16.02;9.38;;;;;;;;;;4992677;28;20120;-59
2021/03/29 09:36:19;;;;;;;17.23;8.85;;;;;;;;;;4992873;28;20022;-60
2021/03/29 09:38:50;;;;;;;16.15;9.27;;;;;;;;;;4992544;28;20106;-61
2021/03/29 09:41:19;;;;;;;14.75;8.60;;;;;;;;;;4992930;28;20375;-60
2021/03/29 09:43:46;;;;;;;18.02;9.00;;;;;;;;;;4992882;28;20050;-61
2021/03/29 09:46:13;;;;;;;13.77;8.68;;;;;;;;;;4993327;28;20030;-60
2021/03/29 09:48:39;;;;;;;15.18;8.00;;;;;;;;;;4993979;28;20034;-61
2021/03/29 09:51:21;;;;;;;14.60;7.85;;;;;;;;;;4992783;28;20183;-62
2021/03/29 09:53:48;;;;;;;14.35;7.00;;;;;;;;;;4992311;28;20035;-61
2021/03/29 09:56:14;;;;;;;15.80;6.97;;;;;;;;;;4995760;28;20049;-61
2021/03/29 09:58:48;;;;;;;11.57;6.68;;;;;;;;;;4994850;28;20391;-60
2021/03/29 10:01:24;;;;;;;14.23;6.50;;;;;;;;;;4996682;28;20423;-61
2021/03/29 10:03:51;;;;;;;11.55;5.40;;;;;;;;;;4996680;28;20373;-60
2021/03/29 10:06:18;;;;;;;11.63;5.78;;;;;;;;;;4996987;28;20392;-62
2021/03/29 10:08:54;;;;;;;10.90;5.35;;;;;;;;;;5014963;28;20064;-62
2021/03/29 10:11:20;;;;;;;11.35;5.20;;;;;;;;;;5013588;28;20053;-61
2021/03/29 10:13:46;;;;;;;9.93;4.55;;;;;;;;;;4998754;28;20041;-63
2021/03/29 10:16:16;;;;;;;10.80;4.88;;;;;;;;;;5010527;28;20022;-61
2021/03/29 10:18:42;;;;;;;7.85;4.60;;;;;;;;;;5002860;28;20105;-60
2021/03/29 10:21:08;;;;;;;9.07;5.05;;;;;;;;;;5016034;28;20046;-60
2021/03/29 10:23:40;;;;;;;6.47;3.67;;;;;;;;;;5015058;28;20072;-61
2021/03/29 10:26:13;;;;;;;6.97;4.15;;;;;;;;;;5002051;28;20076;-60
2021/03/29 10:28:39;;;;;;;7.50;3.90;;;;;;;;;;4994902;28;20049;-61
2021/03/29 10:31:05;;;;;;;6.82;3.78;;;;;;;;;;5007007;28;20026;-60
2021/03/29 10:33:31;;;;;;;8.85;2.95;;;;;;;;;;5015406;28;20448;-60
2021/03/29 10:35:57;;;;;;;5.57;2.88;;;;;;;;;;5012551;28;20038;-62
2021/03/29 10:38:24;;;;;;;8.48;3.45;;;;;;;;;;5029109;28;20029;-61
2021/03/29 10:40:50;;;;;;;7.38;3.38;;;;;;;;;;5002883;28;20022;-62
2021/03/29 10:43:16;;;;;;;9.38;3.58;;;;;;;;;;5002064;28;20034;-61
2021/03/29 10:45:42;;;;;;;10.82;4.60;;;;;;;;;;4995308;28;20033;-61
2021/03/29 10:48:08;;;;;;;9.80;4.78;;;;;;;;;;5006886;28;20057;-61
2021/03/29 10:50:34;;;;;;;9.10;4.50;;;;;;;;;;5013552;28;20026;-60
2021/03/29 10:53:00;;;;;;;8.13;5.13;;;;;;;;;;5015614;28;20022;-61
2021/03/29 10:55:26;;;;;;;10.63;4.93;;;;;;;;;;5015084;28;20026;-60
2021/03/29 10:57:52;;;;;;;9.88;4.45;;;;;;;;;;5015102;28;20033;-61
2021/03/29 11:00:19;;;;;;;7.28;4.03;;;;;;;;;;5015514;28;20021;-61
2021/03/29 11:02:46;;;;;;;8.13;4.57;;;;;;;;;;5029638;28;20042;-60
2021/03/29 11:05:14;;;;;;;11.38;4.47;;;;;;;;;;5013761;28;20072;-60
2021/03/29 11:07:40;;;;;;;9.40;4.32;;;;;;;;;;5000789;28;20487;-61
2021/03/29 11:10:06;;;;;;;6.65;4.13;;;;;;;;;;5014705;28;20371;-60
2021/03/29 11:12:32;;;;;;;7.10;4.63;;;;;;;;;;5014793;28;20038;-61
2021/03/29 11:14:58;;;;;;;7.75;4.18;;;;;;;;;;5014503;28;20022;-59
2021/03/29 11:17:28;;;;;;;10.23;5.03;;;;;;;;;;5013102;28;20026;-59
2021/03/29 11:19:54;;;;;;;8.50;4.30;;;;;;;;;;4993646;28;20029;-60
2021/03/29 11:22:20;;;;;;;9.30;4.55;;;;;;;;;;5006958;28;20476;-61
2021/03/29 11:24:46;;;;;;;8.00;4.03;;;;;;;;;;5013310;28;20069;-59
2021/03/29 11:27:12;;;;;;;7.22;4.45;;;;;;;;;;5029903;28;20085;-60
2021/03/29 11:29:38;;;;;;;7.90;5.32;;;;;;;;;;5014450;28;20026;-61
2021/03/29 11:32:05;;;;;;;7.95;4.65;;;;;;;;;;5014574;28;20052;-59
2021/03/29 11:34:31;;;;;;;11.02;4.97;;;;;;;;;;5014355;28;20022;-61
2021/03/29 11:36:57;;;;;;;7.95;4.70;;;;;;;;;;5001770;28;20403;-62
2021/03/29 11:39:23;;;;;;;8.90;5.18;;;;;;;;;;5013340;28;20061;-61
2021/03/29 11:41:49;;;;;;;9.88;5.03;;;;;;;;;;5011050;28;20129;-62
2021/03/29 11:44:15;;;;;;;11.40;4.85;;;;;;;;;;4993804;28;20065;-62
2021/03/29 11:46:41;;;;;;;12.00;4.78;;;;;;;;;;4994998;28;20022;-61
2021/03/29 11:49:07;;;;;;;8.73;4.93;;;;;;;;;;4994649;28;20041;-60
2021/03/29 11:51:33;;;;;;;9.07;4.55;;;;;;;;;;4994402;28;20037;-57
2021/03/29 11:54:00;;;;;;;6.00;3.42;;;;;;;;;;4994888;28;20027;-58
2021/03/29 11:56:26;;;;;;;6.45;3.60;;;;;;;;;;4987262;28;20083;-58
2021/03/29 11:58:52;;;;;;;5.68;3.88;;;;;;;;;;5006031;28;20168;-59
2021/03/29 12:01:58;;;;;;;7.22;4.18;;;;;;;;;;5013648;28;20376;-59
2021/03/29 12:04:19;;;;;;;5.32;3.88;;;;;;;;;;5007673;28;20498;-60
2021/03/29 12:06:54;;;;;;;6.35;4.20;;;;;;;;;;5007844;28;20419;-61
2021/03/29 12:12:06;;;;;;;7.68;3.92;;;;;;;;;;5023612;28;20057;-60
2021/03/29 12:14:33;;;;;;;7.57;4.47;;;;;;;;;;5004361;28;20018;-58
2021/03/29 12:17:01;;;;;;;10.10;4.78;;;;;;;;;;5008021;28;20026;-59
2021/03/29 12:19:27;;;;;;;8.07;3.67;;;;;;;;;;5000539;28;20034;-59
2021/03/29 12:21:55;;;;;;;8.35;4.25;;;;;;;;;;4990080;28;20023;-59
2021/03/29 12:24:22;;;;;;;7.95;3.72;;;;;;;;;;5005891;28;20026;-59
2021/03/29 12:26:49;;;;;;;7.90;3.92;;;;;;;;;;5005712;28;20026;-59
2021/03/29 12:29:19;;;;;;;6.50;3.58;;;;;;;;;;5001992;28;20180;-60
2021/03/29 12:31:46;;;;;;;6.95;3.97;;;;;;;;;;5012967;28;20483;-59
2021/03/29 12:34:12;;;;;;;9.80;4.60;;;;;;;;;;5007498;28;20124;-58
2021/03/29 12:36:53;;;;;;;5.88;3.72;;;;;;;;;;5004318;28;20536;-60
2021/03/29 12:39:26;;;;;;;6.93;3.90;;;;;;;;;;4991511;28;20027;-57
2021/03/29 12:41:54;;;;;;;5.57;3.95;;;;;;;;;;5008683;28;20033;-59
2021/03/29 12:44:20;;;;;;;7.43;3.97;;;;;;;;;;5005027;28;20160;-57
2021/03/29 12:46:49;;;;;;;8.93;4.28;;;;;;;;;;5008669;28;20124;-57
2021/03/29 12:49:16;;;;;;;6.63;3.63;;;;;;;;;;5008093;28;20026;-57
2021/03/29 12:51:43;;;;;;;5.43;3.53;;;;;;;;;;5003995;28;20046;-57
2021/03/29 12:54:20;;;;;;;6.28;3.78;;;;;;;;;;5007633;28;20014;-59
2021/03/29 12:56:46;;;;;;;5.65;3.17;;;;;;;;;;5009171;28;20068;-59
2021/03/29 12:59:12;;;;;;;5.95;3.58;;;;;;;;;;5008363;28;20026;-60
2021/03/29 13:01:41;;;;;;;6.50;3.50;;;;;;;;;;5002561;28;20512;-57
2021/03/29 13:04:13;;;;;;;6.10;3.33;;;;;;;;;;4994467;28;20029;-58
2021/03/29 13:06:46;;;;;;;8.18;3.42;;;;;;;;;;5003829;28;20041;-58
2021/03/29 13:09:25;;;;;;;5.45;3.85;;;;;;;;;;5008329;28;20017;-58
2021/03/29 13:11:53;;;;;;;6.82;3.35;;;;;;;;;;5003272;28;20050;-58
2021/03/29 13:14:20;;;;;;;5.75;2.90;;;;;;;;;;5008024;28;20030;-58
2021/03/29 13:16:46;;;;;;;7.82;3.40;;;;;;;;;;5004251;28;20480;-58
2021/03/29 13:19:12;;;;;;;5.45;3.35;;;;;;;;;;5005139;28;20112;-57
2021/03/29 13:21:38;;;;;;;7.35;3.55;;;;;;;;;;5008416;28;20408;-57
2021/03/29 13:24:04;;;;;;;5.60;2.95;;;;;;;;;;5004995;28;20022;-57
2021/03/29 13:26:30;;;;;;;4.88;3.00;;;;;;;;;;5005820;28;20030;-58
2021/03/29 13:28:56;;;;;;;6.82;3.40;;;;;;;;;;5006740;28;20054;-58
2021/03/29 13:31:23;;;;;;;6.90;3.08;;;;;;;;;;5000664;28;20029;-58
2021/03/29 13:33:49;;;;;;;8.70;2.97;;;;;;;;;;4992385;28;20528;-58
2021/03/29 13:36:15;;;;;;;7.78;3.42;;;;;;;;;;4992462;28;20511;-60
2021/03/29 13:38:42;;;;;;;7.60;3.67;;;;;;;;;;5006233;28;20037;-58
2021/03/29 13:41:09;;;;;;;6.25;3.15;;;;;;;;;;5012889;28;20022;-57
2021/03/29 13:43:38;;;;;;;5.32;2.97;;;;;;;;;;5009658;28;20488;-59
2021/03/29 13:46:04;;;;;;;7.93;2.78;;;;;;;;;;5004180;28;20023;-59
2021/03/29 13:48:30;;;;;;;2.58;2.38;;;;;;;;;;5006810;28;20026;-59
2021/03/29 13:50:57;;;;;;;5.85;2.70;;;;;;;;;;5002231;28;20033;-61
2021/03/29 13:53:25;;;;;;;6.97;2.28;;;;;;;;;;4992558;28;20037;-64
2021/03/29 13:55:51;;;;;;;7.93;3.30;;;;;;;;;;4996822;28;20018;-61
2021/03/29 13:58:18;;;;;;;5.10;2.30;;;;;;;;;;5007481;28;20355;-61
2021/03/29 14:00:48;;;;;;;7.43;3.25;;;;;;;;;;4984870;28;20021;-61
2021/03/29 14:03:16;;;;;;;7.20;3.15;;;;;;;;;;5000067;28;20029;-59
2021/03/29 14:05:42;;;;;;;4.37;3.63;;;;;;;;;;5002062;28;20019;-60
2021/03/29 14:08:08;;;;;;;8.63;3.13;;;;;;;;;;5002248;28;20117;-60
2021/03/29 14:10:35;;;;;;;5.05;3.00;;;;;;;;;;5004113;28;20066;-60
2021/03/29 14:13:01;;;;;;;7.80;3.85;;;;;;;;;;5005735;28;20046;-62
2021/03/29 14:15:28;;;;;;;5.60;3.42;;;;;;;;;;5009879;28;20025;-61
2021/03/29 14:17:54;;;;;;;4.57;2.90;;;;;;;;;;4990632;28;20122;-61
2021/03/29 14:20:21;;;;;;;5.18;3.55;;;;;;;;;;4990981;28;20184;-60
2021/03/29 14:22:47;;;;;;;5.30;2.78;;;;;;;;;;4991068;28;20069;-64
2021/03/29 14:25:14;;;;;;;4.88;3.08;;;;;;;;;;4982824;28;20029;-68
2021/03/29 14:27:41;;;;;;;6.07;3.75;;;;;;;;;;4987510;28;20532;-71
2021/03/29 14:30:08;;;;;;;5.10;2.60;;;;;;;;;;4987905;28;20026;-66
2021/03/29 14:32:34;;;;;;;5.90;3.30;;;;;;;;;;4987790;28;20452;-64
2021/03/29 14:43:47;;;;;;;6.03;3.28;;;;;;;;;;4927148;29;20493;-65
2021/03/29 14:45:56;;;;;;;8.27;3.40;;;;;;;;;;4931855;29;20095;-68